Terminal Aerodrome Forecast
Issued by NWS

Home | Current Version | Previous Version | Graphics & Text | Print | Product List | Glossary On
Versions: 1 2 3 4 5 6 7 8 9 10 11 12 13 14 15 16 17
000
FTUS43 KICT 270520
TAFSLN
TAF
KSLN 270520Z 2706/2806 VRB04KT P6SM FEW080
      TEMPO 2711/2714 4SM BR
     FM271800 14010KT P6SM SCT050 SCT120
     FM280300 14008KT P6SM VCTS SCT050CB OVC080=

USA.gov is the U.S. government's official web portal to all federal, state and local government web resources and services.